Data for 04/20/2007

Time Sea-Level Adjusted Pressure Absolute Pressure Temperature Relative Humidity Dew Point   
(mb) (inHg) (mb) (inHg) (C) (F) (%) (C) (F)
00:05 1012 29.88 841 24.83 1.2 34.2 71 -3.4 25.9
00:10 1012 29.88 841 24.83 1.2 34.2 73 -3.2 26.3
00:15 1012 29.88 841 24.83 1.1 33.9 73 -3.2 26.3
00:20 1012 29.88 841 24.83 0.9 33.6 74 -3.3 26.1
00:25 1012 29.88 841 24.83 0.8 33.5 74 -3.3 26.1
00:30 1012 29.88 841 24.83 0.9 33.6 72 -3.5 25.6
00:35 1012 29.88 841 24.83 1 33.9 70 -3.9 25
00:40 1012 29.88 841 24.83 0.9 33.6 75 -3.1 26.4
00:45 1012 29.88 841 24.83 0.4 32.7 75 -3.6 25.6
00:50 1012 29.88 841 24.83 0.5 32.9 74 -3.6 25.5
00:55 1012 29.88 841 24.83 0.6 33.1 71 -4 24.7
01:00 1012 29.88 841 24.83 0.6 33.1 70 -4.2 24.5
01:05 1012 29.88 841 24.83 0.6 33.1 70 -4.3 24.2
01:10 1012 29.88 841 24.83 0.5 33 69 -4.4 24
01:15 1012 29.88 841 24.83 0.6 33 68 -4.7 23.5
01:20 1012 29.88 841 24.83 0.6 33.1 68 -4.6 23.8
01:25 1012 29.88 841 24.83 0.5 32.8 70 -4.3 24.2
01:30 1012 29.88 841 24.83 0.1 32.3 70 -4.7 23.6
01:35 1012 29.88 841 24.83 0.2 32.3 72 -4.4 24.1
01:40 1012 29.88 841 24.83 -0 32 72 -4.5 24
01:45 1012 29.88 841 24.83 -0 31.9 72 -4.5 23.9
01:50 1012 29.88 841 24.83 -0.4 31.3 75 -4.2 24.4
01:55 1012 29.88 841 24.83 -0.5 31.2 75 -4.3 24.2
02:00 1012 29.88 841 24.83 -0.4 31.3 76 -4.2 24.5
02:05 1012 29.88 841 24.83 -0.4 31.3 75 -4.3 24.3
02:10 1012 29.88 841 24.83 -0.5 31.1 76 -4.2 24.4
02:15 1012 29.88 841 24.83 -0.7 30.7 76 -4.4 24.1
02:20 1012 29.88 841 24.83 -0.7 30.7 76 -4.4 24.2
02:25 1012 29.88 841 24.83 -0.7 30.8 77 -4.3 24.2
02:30 1012 29.88 841 24.83 -0.6 30.9 77 -4.1 24.5
02:35 1012 29.88 841 24.83 -0.6 30.9 77 -4.1 24.6
02:40 1012 29.88 841 24.83 -0.8 30.5 77 -4.4 24.2
02:45 1012 29.88 841 24.83 -0.9 30.5 77 -4.3 24.2
02:50 1012 29.88 841 24.83 -0.9 30.4 78 -4.3 24.3
02:55 1012 29.88 841 24.83 -1 30.2 78 -4.5 24
03:00 1012 29.88 841 24.83 -1.1 30.1 78 -4.5 23.9
03:05 1012 29.88 841 24.83 -1.3 29.6 80 -4.4 24
03:10 1012 29.88 841 24.83 -1.5 29.4 79 -4.7 23.6
03:15 1012 29.88 841 24.83 -1.2 29.8 78 -4.6 23.7
03:20 1012 29.88 841 24.83 -1.1 30 78 -4.5 23.9
03:25 1012 29.88 841 24.83 -1.3 29.7 79 -4.5 24
03:30 1012 29.88 841 24.83 -1.5 29.3 81 -4.4 24.1
03:35 1012 29.88 841 24.83 -1.6 29.2 80 -4.6 23.8
03:40 1012 29.88 841 24.83 -1.6 29.1 80 -4.6 23.8
03:45 1012 29.88 841 24.83 -1.5 29.4 80 -4.5 23.8
03:50 1012 29.88 841 24.83 -1.7 28.9 81 -4.5 23.9
03:55 1012 29.88 841 24.83 -2 28.4 83 -4.5 24
04:00 1012 29.88 841 24.83 -2 28.4 82 -4.6 23.6
04:05 1012 29.88 841 24.83 -1.9 28.7 80 -4.9 23.2
04:10 1012 29.88 841 24.83 -1.4 29.5 79 -4.7 23.6
04:15 1012 29.88 841 24.83 -1.6 29.1 81 -4.4 24
04:20 1012 29.88 841 24.83 -2.1 28.1 83 -4.7 23.6
04:25 1012 29.88 841 24.83 -2.5 27.5 84 -4.8 23.4
04:30 1012 29.88 841 24.83 -2.5 27.5 84 -4.9 23.1
04:35 1012 29.88 841 24.83 -2.4 27.7 82 -5 22.9
04:40 1012 29.88 841 24.83 -2.4 27.7 83 -4.9 23.2
04:45 1012 29.88 841 24.83 -2.5 27.5 83 -5 22.9
04:50 1012 29.88 841 24.83 -2.6 27.3 84 -4.9 23.1
04:55 1012 29.88 841 24.83 -2.9 26.8 85 -5 23
05:00 1012 29.88 841 24.83 -3 26.6 85 -5.1 22.7
05:05 1012 29.88 841 24.83 -2.9 26.8 83 -5.4 22.4
05:10 1012 29.88 841 24.83 -3 26.5 84 -5.4 22.3
05:15 1012 29.88 841 24.83 -3.2 26.2 86 -5.3 22.5
05:20 1012 29.88 841 24.83 -3.4 25.8 87 -5.3 22.4
05:25 1012 29.88 841 24.83 -3.5 25.7 87 -5.4 22.2
05:30 1012 29.88 841 24.83 -3.5 25.7 86 -5.5 22.2
05:35 1012 29.88 841 24.83 -3.4 25.8 87 -5.3 22.4
05:40 1012 29.88 841 24.83 -3.4 25.8 87 -5.3 22.4
05:45 1012 29.88 841 24.83 -3.5 25.8 86 -5.5 22
05:50 1012 29.88 841 24.83 -3.2 26.2 84 -5.6 22
05:55 1012 29.88 841 24.83 -3.4 25.8 85 -5.6 21.9
06:00 1012 29.88 841 24.83 -3.5 25.7 84 -5.8 21.5
06:05 1012 29.88 841 24.83 -3.5 25.6 85 -5.8 21.6
06:10 1012 29.88 841 24.83 -3.6 25.5 85 -5.9 21.5
06:15 1012 29.88 841 24.83 -3.7 25.4 85 -5.9 21.3
06:20 1012 29.88 841 24.83 -3.7 25.4 84 -6 21.2
06:25 1012 29.88 841 24.83 -3.5 25.7 82 -6.2 20.9
06:30 1012 29.88 841 24.83 -3.3 26.1 82 -6 21.3
06:35 1012 29.88 841 24.83 -3.7 25.4 84 -6 21.2
06:40 1012 29.88 841 24.83 -3.8 25.1 84 -6.1 21
06:45 1012 29.88 841 24.83 -3.8 25.1 84 -6.1 21
06:50 1012 29.88 841 24.83 -4 24.8 85 -6.2 20.8
06:55 1012 29.88 841 24.83 -3.7 25.3 83 -6.2 20.8
07:00 1012 29.88 841 24.83 -3.6 25.5 84 -6 21.2
07:05 1012 29.88 841 24.83 -3.6 25.6 83 -6 21.2
07:10 1012 29.88 841 24.83 -3.5 25.8 83 -6 21.2
07:15 1012 29.88 841 24.83 -3.4 25.9 82 -6.1 21.1
07:20 1012 29.88 841 24.83 -3.2 26.2 82 -6 21.3
07:25 1012 29.88 841 24.83 -3 26.5 81 -5.8 21.5
07:30 1012 29.88 841 24.83 -3 26.6 81 -5.8 21.5
07:35 1012 29.88 841 24.83 -2.9 26.9 81 -5.7 21.7
07:40 1012 29.88 841 24.83 -2.7 27.1 79 -5.8 21.5
07:45 1012 29.88 841 24.83 -2.7 27.1 79 -5.9 21.5
07:50 1012 29.88 841 24.83 -2.6 27.2 79 -5.7 21.7
07:55 1012 29.88 841 24.83 -2.6 27.4 80 -5.6 22
08:00 1012 29.88 841 24.83 -2.4 27.8 78 -5.6 21.9
08:05 1012 29.88 841 24.83 -2.2 28.1 78 -5.5 22.1
08:10 1012 29.88 841 24.83 -1.9 28.7 76 -5.5 22.1
08:15 1012 29.88 841 24.83 -1.5 29.2 74 -5.7 21.8
08:20 1012 29.88 841 24.83 -1 30.1 72 -5.5 22.1
08:25 1012 29.88 841 24.83 -0.9 30.3 72 -5.4 22.2
08:30 1012 29.88 841 24.83 -0.6 30.9 71 -5.3 22.4
08:35 1012 29.88 841 24.83 -0.1 31.8 70 -5 22.9
08:40 1012 29.88 842 24.86 0.1 32.2 67 -5.3 22.5
08:45 1012 29.88 842 24.86 0.6 33 67 -4.9 23.3
08:50 1012 29.88 842 24.86 1.1 33.9 65 -4.8 23.4
08:55 1012 29.88 842 24.86 1.2 34.2 62 -5.3 22.5
09:00 1012 29.88 842 24.86 1.5 34.7 62 -5.1 22.9
09:05 1012 29.88 842 24.86 1.5 34.7 61 -5.1 22.8
09:10 1012 29.88 842 24.86 1.6 34.8 57 -6.1 21
09:15 1012 29.88 842 24.86 1.8 35.2 58 -5.6 21.9
09:20 1012 29.88 842 24.86 2.1 35.8 60 -4.8 23.4
09:25 1012 29.88 842 24.86 2.8 37 56 -5.2 22.6
09:30 1012 29.88 842 24.86 3 37.5 55 -5.1 22.8
09:35 1012 29.88 842 24.86 3.6 38.5 53 -5.2 22.7
09:40 1012 29.88 842 24.86 3.8 38.8 52 -5.2 22.6
09:45 1012 29.88 842 24.86 4.2 39.5 49 -5.7 21.7
09:50 1012 29.88 842 24.86 4.7 40.4 46 -5.8 21.5
09:55 1012 29.88 842 24.86 4.2 39.5 47 -6.1 21.1
10:00 1012 29.88 842 24.86 4.1 39.3 49 -5.7 21.7
10:05 1012 29.88 842 24.86 5.1 41.2 49 -4.8 23.4
10:10 1012 29.88 842 24.86 5.6 42.1 42 -6.2 20.8
10:15 1012 29.88 842 24.86 5.5 42 44 -5.7 21.7
10:20 1012 29.88 842 24.86 5.2 41.3 46 -5.6 21.9
10:25 1012 29.88 842 24.86 5.4 41.7 43 -6.1 21
10:30 1012 29.88 842 24.86 5.9 42.5 43 -5.7 21.8
10:35 1012 29.88 842 24.86 5.7 42.3 42 -6.3 20.6
10:40 1012 29.88 842 24.86 5.8 42.4 38 -7.3 18.9
10:45 1012 29.88 842 24.86 6.4 43.4 38 -7 19.4
10:50 1012 29.88 842 24.86 5.9 42.7 43 -5.8 21.6
10:55 1012 29.88 841 24.83 6 42.8 36 -8.1 17.5
11:00 1012 29.88 841 24.83 6 42.8 37 -7.7 18.2
11:05 1012 29.88 841 24.83 6.4 43.5 33 -8.6 16.5
11:10 1012 29.88 841 24.83 6.2 43.1 34 -8.4 16.9
11:15 1012 29.88 841 24.83 5.4 41.8 35 -8.7 16.3
11:20 1012 29.88 842 24.86 5.5 41.9 36 -8.4 16.9
11:25 1012 29.88 841 24.83 5.4 41.7 40 -7.1 19.3
11:30 1012 29.88 842 24.86 6.1 43 41 -6.3 20.6
11:35 1012 29.88 841 24.83 6.1 43 41 -6.3 20.6
11:40 1012 29.88 841 24.83 6.6 43.9 37 -7.2 19
11:45 1012 29.88 841 24.83 7.1 44.8 35 -7.3 18.9
11:50 1012 29.88 841 24.83 6.6 43.8 40 -6 21.3
11:55 1012 29.88 841 24.83 7.1 44.8 34 -7.8 18
12:00 1012 29.88 841 24.83 6.6 43.9 36 -7.6 18.4
12:05 1012 29.88 841 24.83 6.9 44.4 34 -8 17.6
12:10 1012 29.88 841 24.83 6.6 43.9 35 -7.6 18.3
12:15 1012 29.88 841 24.83 7.7 45.9 33 -7.7 18.1
12:20 1012 29.88 841 24.83 8.6 47.4 33 -6.7 19.9
12:25 1012 29.88 841 24.83 9.3 48.7 32 -6.4 20.5
12:30 1012 29.88 841 24.83 9.2 48.6 28 -8.3 17.1
12:35 1012 29.88 841 24.83 9.2 48.5 29 -7.8 17.9
12:40 1012 29.88 841 24.83 9.5 49.1 28 -7.9 17.7
12:45 1012 29.88 841 24.83 9.6 49.3 30 -7.3 18.9
12:50 1012 29.88 841 24.83 8.9 48 29 -8.2 17.2
12:55 1012 29.88 841 24.83 8.7 47.7 31 -7.6 18.4
13:00 1012 29.88 841 24.83 9.4 49 28 -8.2 17.2
13:05 1012 29.88 841 24.83 8.6 47.5 33 -6.9 19.5
13:10 1012 29.88 841 24.83 9.2 48.5 29 -7.9 17.8
13:15 1011 29.85 841 24.83 9.6 49.3 28 -8.1 17.5
13:20 1011 29.85 841 24.83 9.6 49.3 28 -8 17.7
13:25 1011 29.85 841 24.83 10.1 50.2 26 -8.3 17
13:30 1011 29.85 841 24.83 9.9 49.8 27 -8.2 17.2
13:35 1011 29.85 841 24.83 9.8 49.7 28 -8 17.6
13:40 1011 29.85 840 24.81 10.3 50.5 27 -7.8 17.9
13:45 1011 29.85 840 24.81 10.2 50.3 27 -8.2 17.3
13:50 1011 29.85 840 24.81 10 49.9 27 -8 17.5
13:55 1011 29.85 840 24.81 10.1 50.1 28 -7.4 18.7
14:00 1011 29.85 840 24.81 9.6 49.3 29 -7.6 18.2
14:05 1011 29.85 840 24.81 9.6 49.2 28 -7.9 17.7
14:10 1011 29.85 840 24.81 10 50.1 27 -8 17.6
14:15 1011 29.85 840 24.81 10.5 50.9 28 -7.4 18.6
14:20 1011 29.85 840 24.81 10 49.9 29 -7.1 19.3
14:25 1011 29.85 840 24.81 10 50 28 -7.8 18
14:30 1011 29.85 840 24.81 9.8 49.6 28 -8 17.6
14:35 1011 29.85 840 24.81 10.1 50.1 29 -7.2 19
14:40 1011 29.85 840 24.81 10.3 50.5 28 -7.2 19
14:45 1011 29.85 840 24.81 9.4 49 29 -7.8 17.9
14:50 1011 29.85 840 24.81 10.2 50.3 27 -7.8 18
14:55 1011 29.85 840 24.81 10.3 50.5 27 -7.7 18.1
15:00 1011 29.85 840 24.81 10.1 50.1 29 -7.2 19
15:05 1011 29.85 840 24.81 10.4 50.7 29 -6.9 19.5
15:10 1011 29.85 840 24.81 10.3 50.5 28 -7.5 18.6
15:15 1011 29.85 840 24.81 9.6 49.2 30 -7.2 19.1
15:20 1011 29.85 840 24.81 10.7 51.2 29 -6.7 19.9
15:25 1011 29.85 840 24.81 9.8 49.6 31 -6.6 20.2
15:30 1011 29.85 840 24.81 10.1 50.1 29 -7.3 18.8
15:35 1011 29.85 840 24.81 10.7 51.2 27 -7.6 18.2
15:40 1011 29.85 840 24.81 11 51.8 27 -7.1 19.3
15:45 1011 29.85 840 24.81 10.9 51.7 28 -6.9 19.7
15:50 1011 29.85 840 24.81 10.7 51.2 28 -7.1 19.2
15:55 1011 29.85 840 24.81 10.4 50.7 28 -7.4 18.6
16:00 1011 29.85 840 24.81 10.2 50.4 28 -7.3 18.8
16:05 1011 29.85 840 24.81 9.9 49.7 30 -7 19.4
16:10 1011 29.85 840 24.81 10.2 50.4 29 -6.9 19.5
16:15 1011 29.85 840 24.81 10.6 51.2 28 -7.1 19.3
16:20 1011 29.85 840 24.81 10.8 51.5 28 -6.8 19.7
16:25 1011 29.85 840 24.81 10.3 50.6 29 -7 19.5
16:30 1011 29.85 840 24.81 10.6 51 29 -6.8 19.8
16:35 1011 29.85 840 24.81 10.5 50.9 28 -7.4 18.7
16:40 1011 29.85 840 24.81 10.7 51.3 28 -7.2 19
16:45 1011 29.85 840 24.81 10.6 51.1 27 -7.7 18.1
16:50 1011 29.85 840 24.81 10.5 50.9 27 -7.6 18.3
16:55 1011 29.85 840 24.81 10.8 51.4 27 -7.4 18.6
17:00 1011 29.85 840 24.81 10.8 51.4 27 -7.5 18.5
17:05 1011 29.85 840 24.81 10.2 50.3 29 -7.2 19.1
17:10 1011 29.85 840 24.81 10.3 50.5 27 -8 17.6
17:15 1011 29.85 840 24.81 10.3 50.5 27 -8 17.6
17:20 1011 29.85 840 24.81 10.7 51.2 27 -7.8 17.9
17:25 1011 29.85 840 24.81 10.5 50.8 25 -8.5 16.7
17:30 1011 29.85 840 24.81 10.3 50.5 26 -8.4 16.8
17:35 1011 29.85 840 24.81 10.5 50.9 27 -8 17.7
17:40 1011 29.85 840 24.81 10.8 51.4 26 -8 17.7
17:45 1011 29.85 840 24.81 11.1 52 26 -7.5 18.5
17:50 1011 29.85 840 24.81 10.9 51.6 27 -7.4 18.6
17:55 1011 29.85 840 24.81 10.2 50.4 28 -7.4 18.6
18:00 1011 29.85 840 24.81 10.2 50.4 27 -7.7 18.1
18:05 1011 29.85 840 24.81 10.2 50.3 27 -8.1 17.5
18:10 1011 29.85 840 24.81 10.2 50.3 29 -7.2 19
18:15 1011 29.85 840 24.81 10 50 28 -7.7 18.2
18:20 1011 29.85 840 24.81 9.9 49.8 28 -7.9 17.8
18:25 1011 29.85 840 24.81 10 50 28 -7.6 18.3
18:30 1011 29.85 840 24.81 9.9 49.7 29 -7.4 18.6
18:35 1011 29.85 840 24.81 9.9 49.8 28 -7.8 18
18:40 1011 29.85 840 24.81 9.8 49.7 28 -7.7 18.1
18:45 1011 29.85 840 24.81 9.3 48.8 30 -7.6 18.4
18:50 1011 29.85 840 24.81 8.8 47.9 30 -7.6 18.2
18:55 1011 29.85 840 24.81 8.9 48 30 -7.6 18.2
19:00 1011 29.85 840 24.81 8.7 47.7 32 -7.2 19
19:05 1011 29.85 840 24.81 8.5 47.4 32 -7 19.3
19:10 1011 29.85 840 24.81 8.7 47.7 33 -6.7 20
19:15 1011 29.85 840 24.81 8.8 47.8 33 -6.7 20
19:20 1011 29.85 841 24.83 8.9 48.1 30 -7.8 18
19:25 1011 29.85 841 24.83 9 48.3 30 -7.4 18.6
19:30 1011 29.85 841 24.83 8.9 48 38 -4.6 23.7
19:35 1011 29.85 841 24.83 8.2 46.7 45 -2.9 26.7
19:40 1012 29.88 841 24.83 7.7 45.8 46 -3.1 26.4
19:45 1012 29.88 841 24.83 7.5 45.4 45 -3.7 25.4
19:50 1011 29.85 841 24.83 7.2 45 47 -3.4 26
19:55 1012 29.88 841 24.83 7.1 44.8 46 -3.6 25.5
20:00 1012 29.88 841 24.83 7.1 44.8 49 -3 26.6
20:05 1012 29.88 841 24.83 7 44.5 49 -3 26.6
20:10 1012 29.88 841 24.83 6.8 44.3 50 -2.8 27
20:15 1012 29.88 841 24.83 6.7 44 53 -2.3 27.9
20:20 1012 29.88 841 24.83 6.4 43.6 55 -1.9 28.5
20:25 1012 29.88 841 24.83 6.3 43.3 58 -1.3 29.6
20:30 1012 29.88 841 24.83 6.1 43 58 -1.5 29.3
20:35 1012 29.88 841 24.83 6.2 43.1 57 -1.8 28.8
20:40 1012 29.88 841 24.83 6.3 43.4 57 -1.6 29.2
20:45 1012 29.88 841 24.83 6.2 43.1 56 -1.8 28.7
20:50 1012 29.88 841 24.83 5.9 42.7 58 -1.7 29
20:55 1012 29.88 841 24.83 5.8 42.4 59 -1.5 29.3
21:00 1012 29.88 841 24.83 5.6 42.1 62 -1.1 29.9
21:05 1012 29.88 841 24.83 5.3 41.6 64 -0.8 30.5
21:10 1012 29.88 841 24.83 5 40.9 66 -0.8 30.6
21:15 1012 29.88 841 24.83 4.7 40.5 67 -0.8 30.5
21:20 1012 29.88 841 24.83 4.7 40.5 66 -1.1 30
21:25 1012 29.88 842 24.86 5 40.9 64 -1.3 29.7
21:30 1012 29.88 842 24.86 5.1 41.2 63 -1.4 29.4
21:35 1013 29.91 842 24.86 4.9 40.8 65 -1.1 29.9
21:40 1013 29.91 842 24.86 4.4 39.9 67 -1.1 30
21:45 1013 29.91 842 24.86 4.1 39.4 69 -1 30.2
21:50 1013 29.91 842 24.86 4 39.2 68 -1.3 29.7
21:55 1013 29.91 842 24.86 4.3 39.7 67 -1.3 29.6
22:00 1013 29.91 842 24.86 3.9 39 70 -1.1 30.1
22:05 1013 29.91 842 24.86 3.7 38.7 68 -1.6 29.2
22:10 1013 29.91 842 24.86 4 39.3 66 -1.6 29.1
22:15 1013 29.91 842 24.86 3.7 38.7 66 -2 28.4
22:20 1013 29.91 842 24.86 3.6 38.5 66 -2.2 28.1
22:25 1013 29.91 842 24.86 3.5 38.4 67 -1.9 28.5
22:30 1013 29.91 842 24.86 3.1 37.6 71 -1.6 29.2
22:35 1013 29.91 842 24.86 3.2 37.8 66 -2.4 27.6
22:40 1013 29.91 842 24.86 3.5 38.3 68 -1.8 28.8
22:45 1013 29.91 842 24.86 3 37.4 70 -2 28.5
22:50 1013 29.91 842 24.86 3.2 37.8 68 -2.1 28.3
22:55 1013 29.91 842 24.86 3.3 37.9 70 -1.8 28.8
23:00 1013 29.91 842 24.86 3.1 37.6 70 -1.7 28.9
23:05 1013 29.91 842 24.86 3 37.4 71 -1.7 29
23:10 1013 29.91 842 24.86 2.9 37.3 72 -1.6 29.2
23:15 1013 29.91 842 24.86 3 37.4 72 -1.5 29.3
23:20 1013 29.91 842 24.86 2.6 36.7 75 -1.4 29.5
23:25 1013 29.91 842 24.86 2.5 36.4 76 -1.4 29.5
23:30 1013 29.91 842 24.86 2.5 36.5 76 -1.4 29.6
23:35 1013 29.91 842 24.86 2.6 36.7 74 -1.5 29.4
23:40 1013 29.91 842 24.86 2.7 36.8 74 -1.5 29.3
23:45 1013 29.91 842 24.86 2.3 36.2 77 -1.3 29.6
23:50 1013 29.91 842 24.86 2.1 35.7 78 -1.4 29.5
23:55 1013 29.91 842 24.86 2 35.6 79 -1.3 29.6
24:00 1013 29.91 842 24.86 1.9 35.5 77 -1.7 28.9